Time;durP1;ratioP1;P1;durP2;ratioP2;P2;SDS_P1;SDS_P2;PMS_P1;PMS_P2;Temp;Humidity;BMP_temperature;BMP_pressure;BME280_temperature;BME280_humidity;BME280_pressure;Samples;Min_cycle;Max_cycle;Signal;HPM_P1;HPM_P2
2022/03/17 00:01:23;;;;;;;35.05;18.65;;;;;;;9.76;100.00;100585.44;5094971;28;20115;-66
2022/03/17 00:03:49;;;;;;;35.92;17.50;;;;;;;9.71;100.00;100592.63;5094300;28;20456;-66
2022/03/17 00:06:14;;;;;;;37.08;20.15;;;;;;;9.73;100.00;100590.84;5092382;28;20506;-68
2022/03/17 00:08:41;;;;;;;38.65;19.27;;;;;;;9.68;100.00;100582.09;5092537;28;20110;-67
2022/03/17 00:11:06;;;;;;;38.25;20.58;;;;;;;9.76;100.00;100585.44;5112619;28;20027;-66
2022/03/17 00:13:31;;;;;;;38.28;19.35;;;;;;;9.73;100.00;100593.50;5112570;28;20024;-66
2022/03/17 00:15:57;;;;;;;41.33;20.15;;;;;;;9.76;100.00;100593.41;5112744;28;20532;-66
2022/03/17 00:18:23;;;;;;;34.80;18.08;;;;;;;9.73;100.00;100589.94;5092984;28;20060;-66
2022/03/17 00:20:48;;;;;;;38.00;19.13;;;;;;;9.65;100.00;100587.47;5096761;28;20439;-67
2022/03/17 00:23:14;;;;;;;30.73;16.60;;;;;;;9.58;100.00;100596.44;5109225;28;20094;-66
2022/03/17 00:25:40;;;;;;;32.22;15.90;;;;;;;9.45;100.00;100583.44;5112838;28;20039;-66
2022/03/17 00:28:05;;;;;;;29.73;13.95;;;;;;;9.46;100.00;100586.03;5091972;28;20039;-66
2022/03/17 00:30:31;;;;;;;29.25;14.70;;;;;;;9.49;100.00;100575.34;5091756;28;20024;-67
2022/03/17 00:32:57;;;;;;;28.60;15.52;;;;;;;9.47;100.00;100577.19;5091931;28;20024;-67
2022/03/17 00:38:09;;;;;;;30.83;13.63;;;;;;;9.44;100.00;100594.97;5091692;28;20043;-66
2022/03/17 00:40:36;;;;;;;26.75;14.43;;;;;;;9.37;100.00;100595.97;5093603;28;20019;-66
2022/03/17 00:43:04;;;;;;;27.95;15.75;;;;;;;9.26;100.00;100585.53;5091918;28;20585;-67
2022/03/17 00:45:29;;;;;;;26.92;15.48;;;;;;;9.16;100.00;100581.28;5091872;28;20038;-66
2022/03/17 00:47:55;;;;;;;27.30;13.45;;;;;;;9.21;100.00;100598.00;5091483;28;20107;-66
2022/03/17 00:50:21;;;;;;;29.92;14.70;;;;;;;9.20;100.00;100598.94;5090965;28;20028;-66
2022/03/17 00:52:46;;;;;;;32.10;15.77;;;;;;;9.20;100.00;100602.47;5091556;28;20744;-66
2022/03/17 00:55:14;;;;;;;29.75;14.48;;;;;;;9.20;100.00;100594.50;5091962;28;20115;-66
2022/03/17 00:57:39;;;;;;;37.33;15.65;;;;;;;9.22;100.00;100594.47;5091976;28;20020;-66
2022/03/17 01:00:07;;;;;;;35.33;15.02;;;;;;;9.27;100.00;100604.09;5074794;28;20387;-66
2022/03/17 01:02:33;;;;;;;30.42;15.57;;;;;;;9.28;100.00;100605.84;5111682;28;20024;-66
2022/03/17 01:04:59;;;;;;;34.83;15.93;;;;;;;9.23;100.00;100604.19;5111685;28;20038;-66
2022/03/17 01:07:24;;;;;;;29.08;15.52;;;;;;;9.25;100.00;100607.69;5111590;28;20054;-66
2022/03/17 01:09:50;;;;;;;35.08;16.55;;;;;;;9.24;100.00;100606.81;5111260;28;20106;-66
2022/03/17 01:12:15;;;;;;;34.15;16.98;;;;;;;9.21;100.00;100611.28;5111494;28;20035;-66
2022/03/17 01:14:41;;;;;;;39.15;17.23;;;;;;;9.23;100.00;100609.47;5108005;28;20479;-66
2022/03/17 01:17:06;;;;;;;42.15;19.35;;;;;;;9.24;100.00;100617.41;5102524;28;20161;-66
2022/03/17 01:19:32;;;;;;;40.20;19.23;;;;;;;9.30;100.00;100619.97;5090505;28;20505;-66
2022/03/17 01:21:57;;;;;;;34.35;17.90;;;;;;;9.30;100.00;100613.78;5106599;28;20382;-66
2022/03/17 01:24:22;;;;;;;36.90;17.15;;;;;;;9.31;100.00;100615.53;5110367;28;20027;-66
2022/03/17 01:26:48;;;;;;;33.40;16.88;;;;;;;9.38;100.00;100618.94;5111424;28;20487;-66
2022/03/17 01:29:15;;;;;;;33.58;17.77;;;;;;;9.39;100.00;100610.09;5107742;28;20022;-66
2022/03/17 01:31:40;;;;;;;35.22;17.52;;;;;;;9.40;100.00;100622.47;5093320;28;20030;-66
2022/03/17 01:34:07;;;;;;;32.67;15.82;;;;;;;9.35;100.00;100617.25;5091036;28;20048;-66
2022/03/17 01:36:32;;;;;;;33.08;14.43;;;;;;;9.35;100.00;100619.91;5090948;28;20541;-66
2022/03/17 01:38:58;;;;;;;31.20;16.15;;;;;;;9.27;100.00;100605.88;5090078;28;20684;-66
2022/03/17 01:41:23;;;;;;;28.85;16.33;;;;;;;9.39;100.00;100616.25;5090825;28;20040;-66
2022/03/17 01:43:49;;;;;;;31.25;17.23;;;;;;;9.46;100.00;100620.56;5077465;28;20510;-66
2022/03/17 01:46:15;;;;;;;31.17;16.42;;;;;;;9.51;100.00;100620.47;5110845;28;20437;-66
2022/03/17 01:48:42;;;;;;;35.97;18.08;;;;;;;9.52;100.00;100622.25;5111017;28;20387;-66
2022/03/17 01:51:08;;;;;;;36.88;16.27;;;;;;;9.53;100.00;100619.56;5110641;28;20042;-66
2022/03/17 01:53:34;;;;;;;31.75;15.05;;;;;;;9.56;100.00;100630.13;5110727;28;20026;-66
2022/03/17 01:56:01;;;;;;;35.05;15.68;;;;;;;9.55;100.00;100625.72;5111063;28;20443;-66
2022/03/17 01:58:26;;;;;;;37.17;18.60;;;;;;;9.58;100.00;100622.13;5106813;28;20536;-66
2022/03/17 02:00:52;;;;;;;37.60;16.88;;;;;;;9.60;100.00;100623.84;5102862;28;20032;-66
2022/03/17 02:03:18;;;;;;;33.38;16.55;;;;;;;9.59;100.00;100622.09;5110504;28;20027;-66
2022/03/17 02:05:43;;;;;;;31.38;15.65;;;;;;;9.56;100.00;100624.81;5110601;28;20019;-66
2022/03/17 02:08:11;;;;;;;28.48;15.63;;;;;;;9.57;100.00;100626.53;5095256;28;20024;-66
2022/03/17 02:13:21;;;;;;;36.67;18.40;;;;;;;9.61;100.00;100619.41;5089881;28;20112;-66
2022/03/17 02:15:52;;;;;;;34.65;17.08;;;;;;;9.64;100.00;100622.03;5090321;28;20024;-66
2022/03/17 02:18:18;;;;;;;34.00;19.05;;;;;;;9.65;100.00;100635.28;5108117;28;20076;-66
2022/03/17 02:20:44;;;;;;;31.75;16.88;;;;;;;9.64;100.00;100636.16;5101517;28;20026;-66
2022/03/17 02:25:57;;;;;;;37.05;15.88;;;;;;;9.59;100.00;100624.75;5088785;28;20160;-66
2022/03/17 02:28:24;;;;;;;38.40;17.95;;;;;;;9.68;100.00;100645.81;5089725;28;20028;-66
2022/03/17 02:30:49;;;;;;;35.28;18.88;;;;;;;9.66;100.00;100630.81;5089224;28;20028;-66
2022/03/17 02:33:17;;;;;;;38.45;18.73;;;;;;;9.71;100.00;100635.13;5089680;28;20024;-66
2022/03/17 02:35:49;;;;;;;39.13;18.15;;;;;;;9.75;100.00;100641.28;5089466;28;20027;-66
2022/03/17 02:38:16;;;;;;;38.30;18.73;;;;;;;9.83;100.00;100645.53;5089563;28;20031;-66
2022/03/17 02:40:46;;;;;;;36.85;18.10;;;;;;;9.87;100.00;100639.25;5089824;28;20029;-66
2022/03/17 02:43:14;;;;;;;38.45;18.85;;;;;;;9.87;100.00;100641.91;5089900;28;20055;-66
2022/03/17 02:45:40;;;;;;;39.03;18.25;;;;;;;9.88;100.00;100648.97;5089701;28;20028;-67
2022/03/17 02:48:06;;;;;;;42.88;19.08;;;;;;;9.92;100.00;100655.09;5092021;28;20016;-66
2022/03/17 02:50:32;;;;;;;33.08;18.05;;;;;;;9.94;100.00;100654.16;5089305;28;20047;-66
2022/03/17 02:53:04;;;;;;;36.75;18.83;;;;;;;9.98;100.00;100649.66;5089228;28;20028;-66
2022/03/17 02:55:30;;;;;;;37.63;18.93;;;;;;;9.99;100.00;100651.41;5089674;28;20250;-66
2022/03/17 02:57:56;;;;;;;40.83;20.67;;;;;;;10.01;100.00;100654.91;5093631;28;20470;-66
2022/03/17 03:00:21;;;;;;;40.40;20.48;;;;;;;10.01;100.00;100655.81;5093572;28;20771;-66
2022/03/17 03:02:47;;;;;;;43.70;19.95;;;;;;;10.05;100.00;100654.81;5109886;28;20031;-66
2022/03/17 03:05:12;;;;;;;40.47;18.63;;;;;;;10.03;100.00;100651.31;5109625;28;20428;-66
2022/03/17 03:07:38;;;;;;;43.72;20.25;;;;;;;10.01;100.00;100655.81;5109403;28;20020;-66
2022/03/17 03:10:05;;;;;;;39.05;17.88;;;;;;;10.03;100.00;100659.28;5109440;28;20023;-66
2022/03/17 03:12:30;;;;;;;40.85;19.70;;;;;;;10.02;100.00;100662.84;5106511;28;20437;-66
2022/03/17 03:14:56;;;;;;;44.67;20.05;;;;;;;10.02;100.00;100668.16;5109795;28;20015;-66
2022/03/17 03:17:21;;;;;;;39.67;19.02;;;;;;;10.03;100.00;100680.53;5098665;28;20031;-66
2022/03/17 03:19:51;;;;;;;40.38;18.75;;;;;;;10.01;100.00;100677.06;5087272;28;20052;-66
2022/03/17 03:22:17;;;;;;;40.25;19.92;;;;;;;10.03;100.00;100685.84;5088689;28;20020;-66
2022/03/17 03:24:43;;;;;;;40.63;21.35;;;;;;;10.08;100.00;100684.00;5089371;28;20062;-66
2022/03/17 03:27:08;;;;;;;42.45;20.27;;;;;;;10.09;100.00;100683.13;5091823;28;20444;-66
2022/03/17 03:29:34;;;;;;;42.35;20.75;;;;;;;10.00;100.00;100675.28;5088793;28;20060;-66
2022/03/17 03:32:03;;;;;;;44.15;20.85;;;;;;;10.05;100.00;100697.34;5089347;28;20030;-66
2022/03/17 03:34:29;;;;;;;48.75;21.88;;;;;;;10.07;100.00;100689.34;5088847;28;20111;-66
2022/03/17 03:39:43;;;;;;;46.83;19.85;;;;;;;10.09;100.00;100696.41;5095165;28;20035;-66
2022/03/17 03:42:09;;;;;;;43.00;20.83;;;;;;;10.03;100.00;100690.31;5093168;28;20024;-66
2022/03/17 03:44:36;;;;;;;43.03;21.65;;;;;;;10.10;100.00;100703.47;5092890;28;20027;-66
2022/03/17 03:47:03;;;;;;;45.25;20.88;;;;;;;10.13;100.00;100705.22;5074283;28;20045;-66
2022/03/17 03:49:28;;;;;;;43.30;21.45;;;;;;;10.12;100.00;100717.63;5092538;28;20115;-66
2022/03/17 03:51:53;;;;;;;45.05;20.92;;;;;;;10.09;100.00;100717.69;5092906;28;20476;-66
2022/03/17 03:54:19;;;;;;;46.28;22.17;;;;;;;10.00;100.00;100691.22;5092626;28;20024;-66
2022/03/17 03:56:48;;;;;;;37.80;19.13;;;;;;;10.09;100.00;100717.69;5092826;28;20116;-66
2022/03/17 03:59:22;;;;;;;38.17;16.50;;;;;;;10.11;100.00;100712.34;5092191;28;20032;-66
2022/03/17 04:01:48;;;;;;;;;;;;;;;10.07;100.00;100716.78;5107063;28;20028;-66
2022/03/17 04:04:20;;;;;;;37.92;19.33;;;;;;;10.05;100.00;100712.44;5112904;28;19915;-66
2022/03/17 04:06:51;;;;;;;41.88;19.92;;;;;;;10.08;100.00;100723.88;5109406;28;20387;-66
2022/03/17 04:09:19;;;;;;;36.83;19.13;;;;;;;10.07;100.00;100723.88;5093857;28;20024;-66
2022/03/17 04:11:46;;;;;;;35.05;17.50;;;;;;;10.05;100.00;100717.75;5109497;28;20024;-66
2022/03/17 04:14:13;;;;;;;38.22;19.90;;;;;;;10.03;100.00;100725.72;5112653;28;20066;-66
2022/03/17 04:16:39;;;;;;;36.78;17.80;;;;;;;10.00;100.00;100728.44;5108309;28;20505;-66
2022/03/17 04:19:05;;;;;;;39.53;18.73;;;;;;;9.99;100.00;100732.03;5091342;28;20128;-66
2022/03/17 04:21:31;;;;;;;40.83;20.00;;;;;;;9.94;100.00;100738.31;5092218;28;20063;-66
2022/03/17 04:23:58;;;;;;;35.50;17.83;;;;;;;9.89;100.00;100730.44;5092022;28;20139;-66
2022/03/17 04:26:23;;;;;;;40.05;17.20;;;;;;;9.91;100.00;100731.28;5092616;28;20024;-66
2022/03/17 04:28:49;;;;;;;35.47;18.90;;;;;;;9.93;100.00;100729.50;5075594;28;20383;-66
2022/03/17 04:31:14;;;;;;;34.70;17.45;;;;;;;9.95;100.00;100732.97;5091697;28;20030;-66
2022/03/17 04:33:40;;;;;;;36.25;18.65;;;;;;;9.92;100.00;100717.09;5092042;28;20031;-66
2022/03/17 04:36:06;;;;;;;37.40;18.35;;;;;;;10.04;100.00;100732.81;5092029;28;20127;-66
2022/03/17 04:38:32;;;;;;;38.10;18.83;;;;;;;10.04;100.00;100724.84;5091794;28;20028;-66
2022/03/17 04:40:58;;;;;;;36.08;16.83;;;;;;;10.02;100.00;100716.00;5091607;28;20024;-66
2022/03/17 04:43:24;;;;;;;41.20;18.80;;;;;;;10.06;100.00;100723.03;5073496;28;20081;-66
2022/03/17 04:45:50;;;;;;;36.28;19.42;;;;;;;10.09;100.00;100722.13;5091924;28;20032;-66
2022/03/17 04:48:15;;;;;;;34.40;17.83;;;;;;;10.09;100.00;100723.00;5090903;28;20028;-66
2022/03/17 04:50:41;;;;;;;42.15;19.63;;;;;;;10.10;100.00;100714.09;5093456;28;20059;-66
2022/03/17 04:55:51;;;;;;;37.25;20.02;;;;;;;10.16;100.00;100724.66;5091536;28;20039;-66
2022/03/17 04:58:17;;;;;;;43.55;18.80;;;;;;;10.15;100.00;100724.63;5091460;28;20032;-66
2022/03/17 05:00:43;;;;;;;43.28;20.52;;;;;;;10.13;100.00;100719.34;5098199;28;20744;-66
2022/03/17 05:03:09;;;;;;;37.85;17.88;;;;;;;10.14;100.00;100737.09;5111987;28;20024;-66
2022/03/17 05:05:34;;;;;;;40.53;18.92;;;;;;;10.17;100.00;100726.38;5111732;28;20038;-66
2022/03/17 05:08:00;;;;;;;40.53;19.67;;;;;;;10.16;100.00;100716.66;5111445;28;20027;-66
2022/03/17 05:10:28;;;;;;;39.15;19.90;;;;;;;10.24;100.00;100711.19;5111059;28;20410;-66
2022/03/17 05:12:57;;;;;;;46.50;20.98;;;;;;;10.34;100.00;100723.38;5108428;28;20027;-66
2022/03/17 05:15:24;;;;;;;38.60;20.10;;;;;;;10.32;100.00;100731.41;5093279;28;20068;-66
2022/03/17 05:17:50;;;;;;;40.15;19.45;;;;;;;10.33;100.00;100738.47;5096363;28;20497;-66
2022/03/17 05:20:15;;;;;;;44.33;23.65;;;;;;;10.31;100.00;100750.91;5090697;28;20032;-66
2022/03/17 05:22:42;;;;;;;48.35;28.30;;;;;;;10.30;100.00;100749.16;5091198;28;20081;-66
2022/03/17 05:25:09;;;;;;;39.95;20.63;;;;;;;10.26;100.00;100757.22;5093678;28;20020;-66
2022/03/17 05:27:39;;;;;;;53.85;21.55;;;;;;;10.23;100.00;100762.63;5092008;28;20035;-66
2022/03/17 05:30:05;;;;;;;41.50;19.38;;;;;;;10.17;100.00;100760.94;5090263;28;20023;-66
2022/03/17 05:32:32;;;;;;;42.28;20.95;;;;;;;10.20;100.00;100774.16;5090668;28;20024;-66
2022/03/17 05:34:57;;;;;;;42.33;18.25;;;;;;;10.19;100.00;100772.44;5090761;28;20479;-66
2022/03/17 05:37:23;;;;;;;43.47;19.90;;;;;;;10.11;100.00;100789.41;5093170;28;20027;-66
2022/03/17 05:39:49;;;;;;;46.05;20.70;;;;;;;10.05;100.00;100795.69;5090236;28;20505;-66
2022/03/17 05:42:16;;;;;;;32.67;17.00;;;;;;;10.02;100.00;100793.09;5090688;28;20056;-66
2022/03/17 05:44:41;;;;;;;34.90;17.27;;;;;;;9.94;100.00;100796.78;5090963;28;20028;-66
2022/03/17 05:47:07;;;;;;;37.97;21.02;;;;;;;9.93;100.00;100811.88;5090310;28;20026;-66
2022/03/17 05:49:32;;;;;;;33.20;18.50;;;;;;;9.94;100.00;100812.72;5090047;28;20125;-66
2022/03/17 05:51:58;;;;;;;34.50;17.05;;;;;;;9.89;100.00;100820.78;5090359;28;20039;-66
2022/03/17 05:54:24;;;;;;;41.28;19.70;;;;;;;9.89;100.00;100830.53;5090427;28;20510;-66
2022/03/17 05:56:49;;;;;;;39.17;23.48;;;;;;;9.85;100.00;100840.31;5090546;28;20015;-66
2022/03/17 05:59:15;;;;;;;40.90;23.63;;;;;;;9.88;100.00;100831.44;5089738;28;20020;-66
2022/03/17 06:01:40;;;;;;;38.35;20.50;;;;;;;9.96;100.00;100837.50;5105807;28;20044;-66
2022/03/17 06:04:05;;;;;;;36.00;19.17;;;;;;;10.00;100.00;100844.53;5095545;28;20016;-66
2022/03/17 06:06:31;;;;;;;35.15;18.83;;;;;;;10.05;100.00;100838.19;5092764;28;20057;-66
2022/03/17 06:08:56;;;;;;;32.55;18.83;;;;;;;10.08;100.00;100859.44;5089490;28;20028;-66
2022/03/17 06:11:22;;;;;;;42.95;21.58;;;;;;;10.12;100.00;100857.63;5090387;28;20024;-66
2022/03/17 06:13:48;;;;;;;49.60;27.60;;;;;;;10.16;100.00;100854.91;5090301;28;20035;-66
2022/03/17 06:16:13;;;;;;;45.90;21.50;;;;;;;10.19;100.00;100862.81;5090443;28;20011;-66
2022/03/17 06:18:40;;;;;;;48.08;22.00;;;;;;;10.32;100.00;100859.03;5109728;28;20479;-66
2022/03/17 06:21:06;;;;;;;51.08;20.35;;;;;;;10.33;100.00;100870.53;5109523;28;20030;-66
2022/03/17 06:23:31;;;;;;;66.72;36.72;;;;;;;10.35;100.00;100877.59;5110231;28;20042;-66
2022/03/17 06:25:57;;;;;;;53.63;30.63;;;;;;;10.40;100.00;100877.50;5110390;28;20102;-66
2022/03/17 06:28:22;;;;;;;49.20;25.58;;;;;;;10.45;100.00;100881.84;5107001;28;20023;-66
2022/03/17 06:30:48;;;;;;;42.88;22.45;;;;;;;10.48;100.00;100881.78;5092527;28;20035;-66
2022/03/17 06:33:14;;;;;;;43.42;22.30;;;;;;;10.51;100.00;100880.81;5090259;28;20027;-66
2022/03/17 06:35:40;;;;;;;44.40;23.05;;;;;;;10.55;100.00;100888.75;5088945;28;20020;-66
2022/03/17 06:38:07;;;;;;;44.03;21.05;;;;;;;10.58;100.00;100896.66;5089867;28;20114;-66
2022/03/17 06:40:33;;;;;;;49.28;23.08;;;;;;;10.60;100.00;100896.63;5089467;28;20387;-66
2022/03/17 06:42:59;;;;;;;46.08;22.90;;;;;;;10.66;100.00;100906.28;5070633;28;20097;-66
2022/03/17 06:45:25;;;;;;;48.47;21.65;;;;;;;10.69;100.00;100903.56;5088859;28;20034;-66
2022/03/17 06:47:51;;;;;;;43.67;21.00;;;;;;;10.75;100.00;100914.09;5089733;28;20028;-66
2022/03/17 06:50:22;;;;;;;44.45;22.25;;;;;;;10.78;100.00;100911.34;5091242;28;20085;-66
2022/03/17 06:52:48;;;;;;;47.65;22.08;;;;;;;10.77;100.00;100910.50;5072106;28;20027;-66
2022/03/17 06:55:14;;;;;;;44.70;23.75;;;;;;;10.84;100.00;100916.59;5089803;28;20016;-66
2022/03/17 06:57:40;;;;;;;47.58;22.27;;;;;;;10.86;100.00;100918.28;5089205;28;20035;-66
2022/03/17 07:00:11;;;;;;;38.55;20.50;;;;;;;10.94;100.00;100924.34;5095096;28;20024;-66
2022/03/17 07:02:37;;;;;;;53.53;24.10;;;;;;;10.92;100.00;100919.97;5104872;28;20034;-66
2022/03/17 07:05:03;;;;;;;41.70;22.85;;;;;;;10.87;100.00;100927.16;5109618;28;20036;-66
2022/03/17 07:07:29;;;;;;;48.25;23.58;;;;;;;10.86;100.00;100925.38;5109748;28;20038;-66
2022/03/17 07:09:55;;;;;;;42.45;21.08;;;;;;;10.84;100.00;100921.91;5109032;28;20040;-65
2022/03/17 07:12:20;;;;;;;41.47;20.45;;;;;;;10.86;100.00;100930.72;5111161;28;20114;-66
2022/03/17 07:14:45;;;;;;;46.47;22.05;;;;;;;10.84;100.00;100924.56;5096779;28;20510;-66
2022/03/17 07:17:11;;;;;;;41.88;21.67;;;;;;;10.97;100.00;100931.41;5099357;28;20024;-66
2022/03/17 07:19:36;;;;;;;41.15;19.98;;;;;;;11.05;100.00;100921.47;5113228;28;20039;-66
2022/03/17 07:22:03;;;;;;;44.30;22.65;;;;;;;11.15;100.00;100933.69;5113538;28;20019;-66
2022/03/17 07:24:28;;;;;;;43.63;22.80;;;;;;;11.13;100.00;100930.19;5113734;28;20023;-66
2022/03/17 07:26:54;;;;;;;43.85;21.60;;;;;;;11.19;100.00;100933.59;5113234;28;20031;-66
2022/03/17 07:29:20;;;;;;;49.13;28.13;;;;;;;11.27;100.00;100936.09;5103113;28;20078;-66
2022/03/17 07:31:45;;;;;;;46.83;23.77;;;;;;;11.38;100.00;100931.44;5093351;28;20417;-66
2022/03/17 07:34:11;;;;;;;46.83;23.85;;;;;;;11.47;100.00;100931.22;5093368;28;20028;-66
2022/03/17 07:36:36;;;;;;;43.00;21.50;;;;;;;11.52;100.00;100940.00;5109631;28;20023;-66
2022/03/17 07:39:03;;;;;;;49.50;22.38;;;;;;;11.59;100.00;100946.94;5103069;28;20474;-66
2022/03/17 07:41:29;;;;;;;47.88;21.77;;;;;;;11.64;100.00;100953.09;5106525;28;20062;-66
2022/03/17 07:43:55;;;;;;;40.80;21.13;;;;;;;11.64;100.00;100955.75;5093759;28;20061;-66
2022/03/17 07:46:20;;;;;;;54.95;24.08;;;;;;;11.68;100.00;100957.44;5092538;28;20371;-66
2022/03/17 07:48:46;;;;;;;54.22;23.70;;;;;;;11.72;100.00;100959.13;5093878;28;20063;-67
2022/03/17 07:51:11;;;;;;;39.20;19.73;;;;;;;11.76;100.00;100963.50;5099579;28;20027;-66
2022/03/17 07:53:38;;;;;;;39.60;19.40;;;;;;;11.77;100.00;100973.22;5108379;28;20028;-66
2022/03/17 07:56:06;;;;;;;41.08;21.10;;;;;;;11.81;100.00;100972.25;5112543;28;20111;-66
2022/03/17 07:58:32;;;;;;;39.60;19.33;;;;;;;11.84;100.00;100969.53;5102955;28;20028;-66
2022/03/17 08:01:00;;;;;;;42.28;21.65;;;;;;;11.83;100.00;100963.31;5100902;28;20031;-67
2022/03/17 08:03:25;;;;;;;44.60;21.77;;;;;;;11.87;100.00;100975.66;5093568;28;20040;-66
2022/03/17 08:05:52;;;;;;;42.55;22.00;;;;;;;11.89;100.00;100972.97;5097244;28;20039;-66
2022/03/17 08:08:19;;;;;;;44.95;21.33;;;;;;;11.82;100.00;100976.66;5107962;28;20024;-66
2022/03/17 08:10:44;;;;;;;43.50;20.08;;;;;;;11.83;100.00;100976.63;5110742;28;20104;-66
2022/03/17 08:13:10;;;;;;;46.08;21.20;;;;;;;11.76;100.00;100966.16;5113120;28;20526;-66
2022/03/17 08:15:41;;;;;;;47.83;20.40;;;;;;;11.86;100.00;100978.38;5094435;28;20028;-66
2022/03/17 08:18:07;;;;;;;40.53;22.60;;;;;;;11.90;100.00;100977.38;5095260;28;20135;-66
2022/03/17 08:20:39;;;;;;;42.90;22.25;;;;;;;11.94;100.00;100981.75;5091960;28;20387;-66
2022/03/17 08:23:06;;;;;;;44.00;21.45;;;;;;;11.97;100.00;100987.00;5092029;28;20048;-66
2022/03/17 08:25:31;;;;;;;42.80;20.42;;;;;;;11.94;100.00;100987.06;5091981;28;20032;-66
2022/03/17 08:27:56;;;;;;;41.45;21.30;;;;;;;11.99;100.00;100985.19;5094482;28;20031;-66
2022/03/17 08:30:22;;;;;;;40.88;20.05;;;;;;;12.02;100.00;100990.44;5094550;28;20020;-66
2022/03/17 08:32:48;;;;;;;43.50;23.02;;;;;;;12.05;100.00;100995.69;5091803;28;20028;-66
2022/03/17 08:35:14;;;;;;;55.72;26.70;;;;;;;12.02;100.00;101003.78;5092153;28;20031;-66
2022/03/17 08:37:41;;;;;;;48.10;23.83;;;;;;;12.00;100.00;101005.59;5091972;28;20035;-66
2022/03/17 08:40:07;;;;;;;50.92;26.58;;;;;;;12.00;100.00;101004.69;5091176;28;20028;-66
2022/03/17 08:42:37;;;;;;;44.22;22.83;;;;;;;11.99;100.00;101011.84;5073904;28;20506;-66
2022/03/17 08:49:18;;;;;;;45.20;23.48;;;;;;;11.99;100.00;101009.19;5091929;28;20023;-66
2022/03/17 08:50:33;;;;;;;42.17;20.73;;;;;;;12.09;100.00;101012.50;5111878;28;20405;-66
2022/03/17 08:53:01;;;;;;;42.38;20.42;;;;;;;12.14;100.00;101016.78;5111981;28;20024;-66
2022/03/17 08:55:27;;;;;;;47.25;22.65;;;;;;;12.11;100.00;101006.22;5111933;28;20057;-66
2022/03/17 08:57:52;;;;;;;44.17;21.42;;;;;;;12.17;100.00;101022.09;5111900;28;20098;-66
2022/03/17 09:00:17;;;;;;;39.00;20.92;;;;;;;12.17;100.00;101022.09;5101966;28;20016;-66
2022/03/17 09:02:44;;;;;;;40.67;22.08;;;;;;;12.22;100.00;101021.97;5093269;28;20019;-66
2022/03/17 09:05:10;;;;;;;39.05;20.40;;;;;;;12.28;100.00;101025.38;5112006;28;20453;-66
2022/03/17 09:07:36;;;;;;;43.70;22.10;;;;;;;12.44;100.00;101040.09;5110158;28;20094;-66
2022/03/17 09:10:02;;;;;;;43.30;21.20;;;;;;;12.49;98.45;101032.88;5110602;28;20419;-66
2022/03/17 09:12:29;;;;;;;39.50;21.15;;;;;;;12.41;98.49;101036.63;5111492;28;20136;-66
2022/03/17 09:14:55;;;;;;;45.20;22.38;;;;;;;12.41;98.52;101037.50;5111865;28;20733;-66
2022/03/17 09:17:21;;;;;;;39.65;19.23;;;;;;;12.56;99.07;101031.81;5103093;28;20093;-66
2022/03/17 09:19:46;;;;;;;40.17;21.60;;;;;;;12.68;97.86;101036.84;5090409;28;20519;-66
2022/03/17 09:22:12;;;;;;;38.25;21.80;;;;;;;12.81;97.32;101032.97;5090812;28;20365;-66
2022/03/17 09:24:37;;;;;;;44.55;23.00;;;;;;;12.90;96.90;101032.69;5106154;28;20035;-66
2022/03/17 09:27:03;;;;;;;38.38;20.80;;;;;;;13.06;96.71;101033.22;5111161;28;20108;-66
2022/03/17 09:29:29;;;;;;;38.33;21.17;;;;;;;13.26;95.83;101044.25;5104654;28;20032;-66
2022/03/17 09:31:58;;;;;;;41.92;20.80;;;;;;;13.34;94.62;101038.69;5090925;28;20028;-66
2022/03/17 09:34:23;;;;;;;39.70;21.33;;;;;;;13.49;93.63;101046.28;5091014;28;20507;-66
2022/03/17 09:36:49;;;;;;;38.92;21.45;;;;;;;13.55;92.69;101033.63;5094063;28;20100;-66
2022/03/17 09:41:59;;;;;;;42.55;22.08;;;;;;;13.76;92.33;101029.44;5110858;28;20046;-66
2022/03/17 09:44:24;;;;;;;41.15;19.90;;;;;;;13.94;90.78;101051.19;5111131;28;20107;-66
2022/03/17 09:46:52;;;;;;;37.25;20.38;;;;;;;14.08;90.60;101050.78;5110767;28;20165;-66
2022/03/17 09:49:19;;;;;;;37.47;19.98;;;;;;;14.30;90.32;101051.88;5110804;28;20027;-66
2022/03/17 09:51:45;;;;;;;36.10;20.17;;;;;;;14.37;87.46;101054.34;5110459;28;20028;-66
2022/03/17 09:54:12;;;;;;;39.97;21.55;;;;;;;14.34;88.15;101045.53;5107687;28;20035;-66
2022/03/17 09:56:37;;;;;;;34.65;18.90;;;;;;;14.46;87.73;101048.66;5111129;28;20737;-66
2022/03/17 09:59:03;;;;;;;41.83;20.98;;;;;;;14.67;87.53;101057.81;5107728;28;20027;-66
2022/03/17 10:01:29;;;;;;;38.78;20.33;;;;;;;14.78;86.59;101057.50;5104767;28;20084;-66
2022/03/17 10:03:59;;;;;;;34.92;20.95;;;;;;;14.84;85.86;101060.84;5110602;28;20486;-66
2022/03/17 10:06:25;;;;;;;39.67;21.25;;;;;;;15.05;85.69;101065.47;5110465;28;20024;-66
2022/03/17 10:08:51;;;;;;;37.15;19.50;;;;;;;15.02;84.63;101068.25;5109994;28;20035;-66
2022/03/17 10:11:27;;;;;;;36.67;19.80;;;;;;;14.99;83.81;101071.00;5110548;28;20024;-66
2022/03/17 10:13:54;;;;;;;42.60;19.42;;;;;;;14.91;84.47;101073.06;5110329;28;20596;-66
2022/03/17 10:16:21;;;;;;;41.90;20.40;;;;;;;15.02;83.98;101076.28;5108036;28;20023;-66
2022/03/17 10:19:08;;;;;;;39.08;21.63;;;;;;;15.04;84.27;101078.91;5089264;28;20063;-66
2022/03/17 10:21:34;;;;;;;33.70;18.95;;;;;;;15.19;84.24;101078.41;5089693;28;20466;-66
2022/03/17 10:24:06;;;;;;;40.90;20.73;;;;;;;15.21;83.13;101079.19;5089570;28;20028;-66
2022/03/17 10:26:50;;;;;;;41.15;20.13;;;;;;;15.15;84.08;101079.41;5090121;28;20143;-66
2022/03/17 10:29:25;;;;;;;39.05;20.70;;;;;;;15.32;82.67;101085.94;5089167;28;20028;-66
2022/03/17 10:31:52;;;;;;;38.95;21.10;;;;;;;15.35;82.24;101080.47;5089860;28;20122;-66
2022/03/17 10:34:19;;;;;;;35.50;19.65;;;;;;;15.54;80.92;101086.97;5094467;28;20024;-66
2022/03/17 10:36:45;;;;;;;36.28;20.67;;;;;;;15.70;81.27;101093.53;5109808;28;20020;-66
2022/03/17 10:39:11;;;;;;;39.65;20.30;;;;;;;15.71;80.61;101094.41;5110121;28;20429;-66
2022/03/17 10:41:49;;;;;;;34.38;19.48;;;;;;;15.79;80.78;101098.56;5110220;28;20027;-66
2022/03/17 10:44:16;;;;;;;35.60;19.52;;;;;;;15.73;81.29;101103.28;5106472;28;20024;-66
2022/03/17 10:46:55;;;;;;;38.45;20.58;;;;;;;15.92;81.32;101114.19;5109291;28;20122;-66
2022/03/17 10:49:20;;;;;;;44.95;21.92;;;;;;;15.94;81.32;101112.34;5109655;28;20024;-66
2022/03/17 10:51:46;;;;;;;37.53;19.92;;;;;;;16.05;80.21;101112.81;5108489;28;20035;-66
2022/03/17 10:54:20;;;;;;;38.72;19.17;;;;;;;16.11;78.28;101121.50;5109896;28;20027;-66
2022/03/17 10:57:03;;;;;;;40.22;18.65;;;;;;;16.21;76.22;101127.44;5110199;28;20015;-66
2022/03/17 10:59:37;;;;;;;36.15;20.08;;;;;;;16.33;75.98;101116.19;5103227;28;20103;-66
2022/03/17 11:02:08;;;;;;;34.47;19.35;;;;;;;16.35;76.22;101125.97;5107564;28;20126;-66
2022/03/17 11:04:36;;;;;;;36.78;19.83;;;;;;;16.51;76.12;101126.25;5110111;28;20102;-66
2022/03/17 11:07:05;;;;;;;36.22;20.20;;;;;;;16.59;74.48;101125.03;5109375;28;20024;-66
2022/03/17 11:09:32;;;;;;;38.55;19.40;;;;;;;16.63;72.15;101123.09;5109380;28;20028;-66
2022/03/17 11:11:57;;;;;;;38.65;18.63;;;;;;;16.75;74.02;101126.16;5108968;28;20491;-66
2022/03/17 11:14:23;;;;;;;34.42;18.75;;;;;;;16.89;73.27;101122.91;5108170;28;20100;-66
2022/03/17 11:16:51;;;;;;;35.85;18.15;;;;;;;16.88;72.93;101132.81;5100047;28;20016;-66
2022/03/17 11:19:19;;;;;;;35.92;18.42;;;;;;;17.07;72.93;101135.59;5088564;28;20463;-66
2022/03/17 11:21:48;;;;;;;35.47;19.60;;;;;;;17.13;72.80;101138.91;5091702;28;20024;-66
2022/03/17 11:24:19;;;;;;;31.45;18.35;;;;;;;17.11;67.91;101139.94;5089140;28;20042;-66